AES weather

Ålesund Airport
Ålesund, Møre og Romsdal, Norway

Public forecast

Using degrees Celsius for public forecast. Weather courtesy of forecast.io.

METAR (pilot weather report)

Retrieved 2019/05/23 02:20 UTC (0 seconds ago):

ENAL 230220Z AUTO 26007KT 3800 BR OVC003/// 09/09 Q1006

TAF (pilot weather forecast)

Forecast is more than 12 hours old.

Closest forecast is Molde Airport, 33.4 nm (61.8 km) ENE. Retrieved 2011/03/08 08:45 UTC (8 years ago):

TAF TAF ESDF 0808 FCNO33 ENMI 080800 RRC TAF ENML 080800Z 0809/0818 21015KT 9999 FEW030 BKN050 TEMPO 0809/0818 21022G35KT BECMG 0815/0818 21022G35KT TEMPO 0815/0818 4000 RADZ BKN012